createdAt,value
2019-04-22T00:00:32.457Z,0.00
2019-04-22T00:01:31.250Z,0.00
2019-04-22T00:02:26.455Z,0.00
2019-04-22T00:03:36.080Z,0.00
2019-04-22T00:04:40.228Z,0.00
2019-04-22T00:05:52.463Z,0.00
2019-04-22T00:06:50.308Z,0.00
2019-04-22T00:07:48.220Z,0.00
2019-04-22T00:08:49.183Z,0.00
2019-04-22T00:09:54.953Z,0.00
2019-04-22T00:10:59.000Z,0.00
2019-04-22T00:11:54.666Z,0.00
2019-04-22T00:12:54.637Z,0.00
2019-04-22T00:13:51.949Z,0.00
2019-04-22T00:14:48.500Z,0.00
2019-04-22T00:15:41.809Z,0.00
2019-04-22T00:16:51.945Z,0.00
2019-04-22T00:19:13.265Z,0.00
2019-04-22T00:20:54.444Z,0.00
2019-04-22T00:21:55.217Z,0.00
2019-04-22T00:22:51.610Z,0.00
2019-04-22T00:23:53.090Z,0.00
2019-04-22T00:24:51.227Z,0.00
2019-04-22T00:25:57.345Z,0.00
2019-04-22T00:26:50.215Z,0.00
2019-04-22T00:27:57.238Z,0.00
2019-04-22T00:29:03.950Z,0.00
2019-04-22T00:30:05.419Z,0.00
2019-04-22T00:30:51.539Z,0.00
2019-04-22T00:31:46.184Z,0.00
2019-04-22T00:32:49.516Z,0.00
2019-04-22T00:33:48.692Z,0.00
2019-04-22T00:34:48.367Z,0.00
2019-04-22T00:35:49.358Z,0.00
2019-04-22T00:36:48.278Z,0.00
2019-04-22T00:37:53.696Z,0.00
2019-04-22T00:38:54.327Z,0.00
2019-04-22T00:39:51.436Z,0.00
2019-04-22T00:40:52.580Z,0.00
2019-04-22T00:41:50.514Z,0.00
2019-04-22T00:42:53.567Z,0.00
2019-04-22T00:44:00.403Z,0.00
2019-04-22T00:44:51.750Z,0.00
2019-04-22T00:45:53.627Z,0.00
2019-04-22T00:46:55.681Z,0.00
2019-04-22T00:47:43.699Z,0.00
2019-04-22T00:48:53.439Z,0.00
2019-04-22T00:50:55.736Z,0.00
2019-04-22T00:53:11.671Z,0.00
2019-04-22T00:53:53.096Z,0.00
2019-04-22T00:54:55.803Z,0.00
2019-04-22T00:55:55.562Z,0.00
2019-04-22T00:56:50.752Z,0.00
2019-04-22T00:57:46.413Z,0.00
2019-04-22T00:58:48.484Z,0.00
2019-04-22T00:59:52.020Z,0.00
2019-04-22T01:00:58.759Z,0.00
2019-04-22T01:01:52.569Z,0.00
2019-04-22T01:02:54.321Z,0.00
2019-04-22T01:04:55.981Z,0.00
2019-04-22T01:05:48.221Z,0.00
2019-04-22T01:06:51.614Z,0.00
2019-04-22T01:07:49.953Z,0.00
2019-04-22T01:09:05.797Z,0.00
2019-04-22T01:09:52.015Z,0.00
2019-04-22T01:10:54.036Z,0.00
2019-04-22T01:11:44.603Z,0.00
2019-04-22T01:12:49.987Z,0.00
2019-04-22T01:13:50.072Z,0.00
2019-04-22T01:14:47.287Z,0.00
2019-04-22T01:15:47.556Z,0.00
2019-04-22T01:16:52.107Z,0.00
2019-04-22T01:17:52.652Z,0.00
2019-04-22T01:18:49.033Z,0.00
2019-04-22T01:19:58.706Z,0.00
2019-04-22T01:21:46.786Z,0.00
2019-04-22T01:22:50.494Z,0.00
2019-04-22T01:23:50.639Z,0.00
2019-04-22T01:24:44.873Z,0.00
2019-04-22T01:25:47.825Z,0.00
2019-04-22T01:26:38.827Z,0.00
2019-04-22T01:27:41.855Z,0.00
2019-04-22T01:28:39.542Z,0.00
2019-04-22T01:29:39.858Z,0.00
2019-04-22T01:30:35.002Z,0.00
2019-04-22T01:31:29.328Z,0.00
2019-04-22T01:32:34.421Z,0.00
2019-04-22T01:33:33.114Z,0.00
2019-04-22T01:34:40.358Z,0.00
2019-04-22T01:35:35.802Z,0.00
2019-04-22T01:36:42.947Z,0.00
2019-04-22T01:37:45.882Z,0.00
2019-04-22T01:38:56.325Z,0.00
2019-04-22T01:39:50.066Z,0.00
2019-04-22T01:40:54.152Z,0.00
2019-04-22T01:41:55.394Z,0.00
2019-04-22T01:42:57.570Z,0.00
2019-04-22T01:43:58.825Z,0.00
2019-04-22T01:45:06.964Z,0.00
2019-04-22T01:45:54.389Z,0.00
2019-04-22T01:46:49.400Z,0.00
2019-04-22T01:47:53.300Z,0.00
2019-04-22T01:48:54.311Z,0.00
2019-04-22T01:49:49.516Z,0.00
2019-04-22T01:50:49.644Z,0.00
2019-04-22T01:52:52.107Z,0.00
2019-04-22T01:53:50.282Z,0.00
2019-04-22T01:54:54.640Z,0.00
2019-04-22T01:55:55.541Z,0.00
2019-04-22T01:57:47.614Z,0.00
2019-04-22T01:58:44.316Z,0.00
2019-04-22T01:59:40.382Z,0.00
2019-04-22T02:00:58.238Z,0.00
2019-04-22T02:01:50.959Z,0.00
2019-04-22T02:02:49.288Z,0.00
2019-04-22T02:03:57.942Z,0.00
2019-04-22T02:04:53.292Z,0.00
2019-04-22T02:05:50.534Z,0.00
2019-04-22T02:06:48.210Z,0.00
2019-04-22T02:07:48.256Z,0.00
2019-04-22T02:08:52.730Z,0.00
2019-04-22T02:09:53.312Z,0.00
2019-04-22T02:11:54.460Z,0.00
2019-04-22T02:12:53.228Z,0.00
2019-04-22T02:13:52.270Z,0.00
2019-04-22T02:15:06.587Z,0.00
2019-04-22T02:15:53.797Z,0.00
2019-04-22T02:17:58.036Z,0.00
2019-04-22T02:18:53.091Z,0.00
2019-04-22T02:19:53.092Z,0.00
2019-04-22T02:20:50.324Z,0.00
2019-04-22T02:21:51.662Z,0.00
2019-04-22T02:23:00.520Z,0.00
2019-04-22T02:23:56.005Z,0.00
2019-04-22T02:24:54.287Z,0.00
2019-04-22T02:25:57.939Z,0.00
2019-04-22T02:26:51.917Z,0.00
2019-04-22T02:27:56.502Z,0.00
2019-04-22T02:28:45.787Z,0.00
2019-04-22T02:29:47.657Z,0.00
2019-04-22T02:31:18.684Z,0.00
2019-04-22T02:31:59.551Z,0.00
2019-04-22T02:33:18.413Z,0.00
2019-04-22T02:36:08.620Z,0.00
2019-04-22T02:36:54.879Z,0.00
2019-04-22T02:38:04.713Z,0.00
2019-04-22T02:39:55.439Z,0.00
2019-04-22T02:41:52.490Z,0.00
2019-04-22T02:43:01.954Z,0.00
2019-04-22T02:44:03.174Z,0.00
2019-04-22T02:46:13.455Z,0.00
2019-04-22T02:47:08.396Z,0.00
2019-04-22T02:49:07.404Z,0.00
2019-04-22T02:50:01.785Z,0.00
2019-04-22T02:51:02.545Z,0.00
2019-04-22T02:51:43.493Z,0.00
2019-04-22T02:52:51.004Z,0.00
2019-04-22T02:54:27.069Z,0.00
2019-04-22T02:54:54.561Z,0.00
2019-04-22T02:56:01.692Z,0.00
2019-04-22T02:56:48.788Z,0.00
2019-04-22T02:57:47.129Z,0.00
2019-04-22T02:59:12.390Z,0.00
2019-04-22T03:00:01.489Z,0.00
2019-04-22T03:01:01.184Z,0.00
2019-04-22T03:01:51.410Z,0.00
2019-04-22T03:03:18.344Z,0.00
2019-04-22T03:04:57.981Z,0.00
2019-04-22T03:07:58.236Z,0.00
2019-04-22T03:09:01.338Z,0.00
2019-04-22T03:09:59.586Z,0.00
2019-04-22T03:11:04.029Z,0.00
2019-04-22T03:12:06.230Z,0.00
2019-04-22T03:12:56.334Z,0.00
2019-04-22T03:14:03.297Z,0.00
2019-04-22T03:14:48.363Z,0.00
2019-04-22T03:15:59.609Z,0.00
2019-04-22T03:17:10.291Z,0.00
2019-04-22T03:17:58.446Z,0.00
2019-04-22T03:19:05.808Z,0.00
2019-04-22T03:21:00.109Z,0.00
2019-04-22T03:21:54.868Z,0.00
2019-04-22T03:22:59.969Z,0.00
2019-04-22T03:24:08.877Z,0.00
2019-04-22T03:27:44.166Z,0.00
2019-04-22T03:28:57.152Z,0.00
2019-04-22T03:30:16.349Z,0.00
2019-04-22T03:34:39.547Z,0.00
2019-04-22T03:36:26.171Z,0.00
2019-04-22T03:39:19.450Z,0.00
2019-04-22T03:40:07.235Z,0.00
2019-04-22T03:41:13.481Z,0.00
2019-04-22T03:42:06.795Z,0.00
2019-04-22T03:42:56.189Z,0.00
2019-04-22T03:44:08.275Z,0.00
2019-04-22T03:45:00.387Z,0.00
2019-04-22T03:45:51.693Z,0.00
2019-04-22T03:47:02.414Z,0.00
2019-04-22T03:49:10.874Z,4.00
2019-04-22T03:50:04.435Z,0.00
2019-04-22T03:50:42.514Z,0.00
2019-04-22T03:53:01.438Z,0.00
2019-04-22T03:54:02.774Z,4.00
2019-04-22T03:55:53.157Z,8.00
2019-04-22T03:57:26.554Z,8.00
2019-04-22T03:58:56.939Z,8.00
2019-04-22T04:02:15.555Z,12.00
2019-04-22T04:02:56.062Z,16.00
2019-04-22T04:04:02.979Z,16.00
2019-04-22T04:04:49.529Z,20.00
2019-04-22T04:05:57.640Z,24.00
2019-04-22T04:08:53.289Z,40.00
2019-04-22T04:09:59.335Z,48.00
2019-04-22T04:10:53.236Z,56.00
2019-04-22T04:12:58.141Z,76.00
2019-04-22T04:14:01.757Z,84.00
2019-04-22T04:15:05.220Z,96.00
2019-04-22T04:15:52.604Z,112.00
2019-04-22T04:16:56.438Z,124.00
2019-04-22T04:17:51.457Z,140.00
2019-04-22T04:20:05.500Z,180.00
2019-04-22T04:21:09.265Z,200.00
2019-04-22T04:21:50.452Z,224.00
2019-04-22T04:23:04.852Z,248.00
2019-04-22T04:24:25.795Z,272.00
2019-04-22T04:25:52.051Z,328.00
2019-04-22T04:27:20.067Z,356.00
2019-04-22T04:30:14.438Z,452.00
2019-04-22T04:30:48.777Z,488.00
2019-04-22T04:32:56.710Z,572.00
2019-04-22T04:34:00.445Z,612.00
2019-04-22T04:36:01.822Z,700.00
2019-04-22T04:37:18.423Z,744.00
2019-04-22T04:38:58.403Z,844.00
2019-04-22T04:40:48.964Z,948.00
2019-04-22T04:42:55.763Z,1056.00
2019-04-22T04:44:11.192Z,1116.00
2019-04-22T04:45:16.382Z,1176.00
2019-04-22T04:47:06.013Z,1304.00
2019-04-22T04:48:02.557Z,1368.00
2019-04-22T04:49:00.435Z,1436.00
2019-04-22T04:53:06.298Z,1728.00
2019-04-22T04:54:01.218Z,1832.00
2019-04-22T04:55:18.532Z,1928.00
2019-04-22T04:55:53.274Z,2064.00
2019-04-22T04:56:51.355Z,2184.00
2019-04-22T05:00:25.796Z,2532.00
2019-04-22T05:01:52.556Z,2520.00
2019-04-22T05:02:52.270Z,2484.00
2019-04-22T05:04:00.227Z,2548.00
2019-04-22T05:05:50.577Z,2708.00
2019-04-22T05:09:53.177Z,3032.00
2019-04-22T05:11:05.587Z,3120.00
2019-04-22T05:12:12.479Z,3208.00
2019-04-22T05:15:00.832Z,3492.00
2019-04-22T05:15:59.762Z,3580.00
2019-04-22T05:17:57.823Z,3768.00
2019-04-22T05:18:50.922Z,3868.00
2019-04-22T05:19:50.245Z,3976.00
2019-04-22T05:20:59.723Z,4092.00
2019-04-22T05:21:55.902Z,4220.00
2019-04-22T05:22:44.793Z,4352.00
2019-04-22T05:25:05.970Z,4620.00
2019-04-22T05:25:40.672Z,6136.00
2019-04-22T05:26:52.395Z,8796.00
2019-04-22T05:27:45.358Z,10824.00
2019-04-22T05:28:48.143Z,11284.00
2019-04-22T05:30:03.758Z,11736.00
2019-04-22T05:30:39.522Z,12288.00
2019-04-22T05:31:52.242Z,12768.00
2019-04-22T05:33:02.985Z,13216.00
2019-04-22T05:33:48.430Z,13632.00
2019-04-22T05:34:48.411Z,14112.00
2019-04-22T05:35:46.426Z,14400.00
2019-04-22T05:36:49.427Z,14880.00
2019-04-22T05:37:50.273Z,15168.00
2019-04-22T05:38:46.281Z,15488.00
2019-04-22T05:39:42.490Z,15936.00
2019-04-22T05:40:45.184Z,16256.00
2019-04-22T05:41:48.297Z,16640.00
2019-04-22T05:42:42.685Z,16864.00
2019-04-22T05:45:08.247Z,15104.00
2019-04-22T05:45:44.494Z,14816.00
2019-04-22T05:46:39.295Z,13568.00
2019-04-22T05:47:46.177Z,15296.00
2019-04-22T05:48:51.941Z,14976.00
2019-04-22T05:49:41.606Z,13952.00
2019-04-22T05:50:45.091Z,15552.00
2019-04-22T05:51:42.331Z,19040.00
2019-04-22T05:52:43.141Z,17664.00
2019-04-22T05:53:32.527Z,15296.00
2019-04-22T05:54:48.707Z,12320.00
2019-04-22T05:55:46.901Z,12964.00
2019-04-22T05:56:40.767Z,16320.00
2019-04-22T05:57:47.180Z,15616.00
2019-04-22T05:58:54.113Z,19264.00
2019-04-22T05:59:45.762Z,23104.00
2019-04-22T06:01:14.414Z,24768.00
2019-04-22T06:01:51.555Z,19200.00
2019-04-22T06:04:45.069Z,12712.00
2019-04-22T06:05:47.627Z,16032.00
2019-04-22T06:06:44.946Z,14912.00
2019-04-22T06:07:38.714Z,11740.00
2019-04-22T06:08:48.673Z,10704.00
2019-04-22T06:09:43.359Z,14420.00
2019-04-22T06:10:50.384Z,12932.00
2019-04-22T06:11:48.564Z,12648.00
2019-04-22T06:12:38.917Z,20128.00
2019-04-22T06:13:40.461Z,27104.00
2019-04-22T06:14:38.882Z,25952.00
2019-04-22T06:15:37.236Z,20000.00
2019-04-22T06:16:44.363Z,24640.00
2019-04-22T06:17:47.308Z,32224.00
2019-04-22T06:18:38.648Z,32736.00
2019-04-22T06:19:47.507Z,30656.00
2019-04-22T06:20:50.076Z,28896.00
2019-04-22T06:21:46.308Z,32928.00
2019-04-22T06:23:46.395Z,25088.00
2019-04-22T06:24:42.017Z,30848.00
2019-04-22T06:26:54.412Z,23616.00
2019-04-22T06:27:49.589Z,25760.00
2019-04-22T06:29:41.856Z,30336.00
2019-04-22T06:30:54.609Z,23776.00
2019-04-22T06:32:15.294Z,19296.00
2019-04-22T06:32:40.218Z,22656.00
2019-04-22T06:33:48.406Z,24256.00
2019-04-22T06:34:42.181Z,29600.00
2019-04-22T06:35:48.664Z,19488.00
2019-04-22T06:36:46.413Z,19744.00
2019-04-22T06:37:55.498Z,23712.00
2019-04-22T06:38:46.673Z,19200.00
2019-04-22T06:39:45.262Z,15880.00
2019-04-22T06:40:46.578Z,13884.00
2019-04-22T06:41:50.581Z,18624.00
2019-04-22T06:42:49.983Z,29504.00
2019-04-22T06:43:43.283Z,35328.00
2019-04-22T06:44:47.840Z,37376.00
2019-04-22T06:45:41.572Z,37824.00
2019-04-22T06:46:47.455Z,44800.00
2019-04-22T06:48:44.112Z,36896.00
2019-04-22T06:49:41.906Z,22976.00
2019-04-22T06:50:52.800Z,27904.00
2019-04-22T06:51:46.836Z,37376.00
2019-04-22T06:52:50.272Z,44032.00
2019-04-22T06:53:41.149Z,30848.00
2019-04-22T06:55:05.968Z,15688.00
2019-04-22T06:55:47.083Z,14940.00
2019-04-22T06:56:43.155Z,18496.00
2019-04-22T06:57:43.471Z,29792.00
2019-04-22T06:58:46.068Z,34496.00
2019-04-22T06:59:49.872Z,42880.00
2019-04-22T07:00:42.846Z,52320.00
2019-04-22T07:01:43.271Z,51776.00
2019-04-22T07:02:57.812Z,46656.00
2019-04-22T07:03:50.531Z,50144.00
2019-04-22T07:04:44.956Z,48416.00
2019-04-22T07:05:59.998Z,51936.00
2019-04-22T07:06:48.313Z,52064.00
2019-04-22T07:07:51.908Z,42176.00
2019-04-22T07:09:49.721Z,51264.00
2019-04-22T07:11:04.592Z,48320.00
2019-04-22T07:11:43.762Z,38784.00
2019-04-22T07:12:41.883Z,31200.00
2019-04-22T07:13:43.001Z,27328.00
2019-04-22T07:14:47.484Z,34944.00
2019-04-22T07:16:05.288Z,29728.00
2019-04-22T07:16:49.804Z,19552.00
2019-04-22T07:17:50.835Z,17664.00
2019-04-22T07:18:44.785Z,18400.00
2019-04-22T07:19:45.428Z,21344.00
2019-04-22T07:20:44.242Z,27360.00
2019-04-22T07:21:46.910Z,27104.00
2019-04-22T07:22:41.718Z,39712.00
2019-04-22T07:24:17.840Z,35872.00
2019-04-22T07:24:45.852Z,26528.00
2019-04-22T07:25:40.717Z,24128.00
2019-04-22T07:26:45.114Z,28288.00
2019-04-22T07:27:40.628Z,36352.00
2019-04-22T07:28:37.265Z,40736.00
2019-04-22T07:29:46.889Z,39904.00
2019-04-22T07:31:02.427Z,43904.00
2019-04-22T07:31:42.805Z,48800.00
2019-04-22T07:33:04.514Z,44608.00
2019-04-22T07:33:43.815Z,50976.00
2019-04-22T07:34:46.138Z,54784.00
2019-04-22T07:37:43.572Z,42048.00
2019-04-22T07:38:36.166Z,39680.00
2019-04-22T07:39:44.239Z,42368.00
2019-04-22T07:40:45.638Z,38304.00
2019-04-22T07:41:49.438Z,40544.00
2019-04-22T07:42:41.736Z,43744.00
2019-04-22T07:43:59.755Z,34464.00
2019-04-22T07:44:44.700Z,32480.00
2019-04-22T07:45:42.734Z,27040.00
2019-04-22T07:46:50.083Z,31680.00
2019-04-22T07:47:49.932Z,31456.00
2019-04-22T07:49:43.364Z,35968.00
2019-04-22T07:51:44.657Z,29600.00
2019-04-22T07:52:41.453Z,25120.00
2019-04-22T07:53:45.423Z,24672.00
2019-04-22T07:54:47.965Z,26176.00
2019-04-22T07:55:38.184Z,32832.00
2019-04-22T07:56:48.623Z,33376.00
2019-04-22T07:57:44.463Z,34720.00
2019-04-22T07:58:42.105Z,39488.00
2019-04-22T07:59:45.586Z,43552.00
2019-04-22T08:00:38.563Z,49408.00
2019-04-22T08:01:47.146Z,47744.00
2019-04-22T08:02:44.096Z,39840.00
2019-04-22T08:03:53.348Z,42784.00
2019-04-22T08:04:54.234Z,36480.00
2019-04-22T08:05:51.589Z,33632.00
2019-04-22T08:06:46.361Z,33920.00
2019-04-22T08:07:46.790Z,30752.00
2019-04-22T08:08:45.680Z,31840.00
2019-04-22T08:09:50.977Z,33216.00
2019-04-22T08:10:49.228Z,40864.00
2019-04-22T08:12:47.282Z,37728.00
2019-04-22T08:13:42.495Z,46176.00
2019-04-22T08:15:51.307Z,50208.00
2019-04-22T08:16:43.962Z,48384.00
2019-04-22T08:18:05.039Z,45760.00
2019-04-22T08:18:39.538Z,37792.00
2019-04-22T08:19:44.744Z,36768.00
2019-04-22T08:20:44.096Z,35392.00
2019-04-22T08:21:46.322Z,39712.00
2019-04-22T08:22:45.136Z,50944.00
2019-04-22T08:23:46.538Z,55424.00
2019-04-22T08:24:51.463Z,65760.00
2019-04-22T08:25:43.128Z,60384.00
2019-04-22T08:27:42.859Z,55840.00
2019-04-22T08:28:45.801Z,47936.00
2019-04-22T08:29:54.682Z,46816.00
2019-04-22T08:31:40.053Z,52992.00
2019-04-22T08:32:41.723Z,57184.00
2019-04-22T08:33:44.516Z,56672.00
2019-04-22T08:34:42.541Z,54944.00
2019-04-22T08:36:58.756Z,40416.00
2019-04-22T08:37:51.232Z,42272.00
2019-04-22T08:38:48.725Z,36640.00
2019-04-22T08:39:40.632Z,39424.00
2019-04-22T08:40:56.132Z,37408.00
2019-04-22T08:41:37.534Z,47296.00
2019-04-22T08:42:50.029Z,71456.00
2019-04-22T08:45:04.770Z,64096.00
2019-04-22T08:45:46.144Z,57088.00
2019-04-22T08:46:44.301Z,55840.00
2019-04-22T08:47:41.580Z,56960.00
2019-04-22T08:48:48.125Z,53152.00
2019-04-22T08:49:50.272Z,49632.00
2019-04-22T08:50:47.033Z,60416.00
2019-04-22T08:51:56.219Z,67040.00
2019-04-22T08:52:40.645Z,46944.00
2019-04-22T08:53:48.260Z,52224.00
2019-04-22T08:54:43.689Z,75104.00
2019-04-22T08:55:47.877Z,86880.00
2019-04-22T08:56:46.054Z,73792.00
2019-04-22T08:58:04.893Z,50208.00
2019-04-22T08:58:42.221Z,45152.00
2019-04-22T08:59:46.592Z,47872.00
2019-04-22T09:00:51.346Z,58656.00
2019-04-22T09:01:37.819Z,53920.00
2019-04-22T09:02:49.874Z,53472.00
2019-04-22T09:03:49.264Z,61536.00
2019-04-22T09:04:42.125Z,91488.00
2019-04-22T09:05:57.756Z,90656.00
2019-04-22T09:08:01.465Z,97632.00
2019-04-22T09:08:45.287Z,101728.00
2019-04-22T09:09:47.260Z,69824.00
2019-04-22T09:10:46.807Z,92096.00
2019-04-22T09:12:58.033Z,105856.00
2019-04-22T09:13:45.161Z,105920.00
2019-04-22T09:14:43.419Z,108512.00
2019-04-22T09:15:45.464Z,109216.00
2019-04-22T09:16:44.738Z,109664.00
2019-04-22T09:17:40.313Z,108736.00
2019-04-22T09:18:45.951Z,107712.00
2019-04-22T09:19:40.388Z,107200.00
2019-04-22T09:20:48.695Z,106496.00
2019-04-22T09:21:50.651Z,106240.00
2019-04-22T09:22:42.677Z,105248.00
2019-04-22T09:23:44.406Z,105024.00
2019-04-22T09:24:44.167Z,105312.00
2019-04-22T09:25:41.895Z,105792.00
2019-04-22T09:26:43.194Z,106784.00
2019-04-22T09:27:47.926Z,107360.00
2019-04-22T09:28:44.737Z,107328.00
2019-04-22T09:30:51.386Z,107200.00
2019-04-22T09:31:46.627Z,108000.00
2019-04-22T09:32:44.844Z,109248.00
2019-04-22T09:33:38.612Z,108128.00
2019-04-22T09:34:43.303Z,109536.00
2019-04-22T09:35:45.050Z,110016.00
2019-04-22T09:36:41.524Z,111360.00
2019-04-22T09:38:45.053Z,112032.00
2019-04-22T09:39:41.382Z,112320.00
2019-04-22T09:40:43.229Z,111872.00
2019-04-22T09:41:46.689Z,112704.00
2019-04-22T09:42:45.444Z,112736.00
2019-04-22T09:43:50.839Z,113568.00
2019-04-22T09:44:40.384Z,114592.00
2019-04-22T09:45:43.417Z,114944.00
2019-04-22T09:46:41.016Z,115552.00
2019-04-22T09:47:53.866Z,116000.00
2019-04-22T09:48:46.410Z,116256.00
2019-04-22T09:49:51.822Z,116704.00
2019-04-22T09:50:43.283Z,116608.00
2019-04-22T09:51:48.526Z,116768.00
2019-04-22T09:52:43.573Z,117472.00
2019-04-22T09:53:49.769Z,117536.00
2019-04-22T09:54:50.957Z,117088.00
2019-04-22T09:55:43.042Z,117120.00
2019-04-22T09:56:43.951Z,117664.00
2019-04-22T09:57:43.178Z,116960.00
2019-04-22T09:58:46.304Z,117312.00
2019-04-22T09:59:48.456Z,116288.00
2019-04-22T10:00:43.999Z,114944.00
2019-04-22T10:01:50.365Z,115168.00
2019-04-22T10:02:48.941Z,113056.00
2019-04-22T10:03:44.737Z,112512.00
2019-04-22T10:04:39.840Z,112352.00
2019-04-22T10:05:49.857Z,111712.00
2019-04-22T10:06:37.583Z,110880.00
2019-04-22T10:07:43.224Z,110752.00
2019-04-22T10:08:52.946Z,111680.00
2019-04-22T10:10:41.772Z,112832.00
2019-04-22T10:12:42.609Z,115488.00
2019-04-22T10:13:48.000Z,116544.00
2019-04-22T10:14:48.017Z,117120.00
2019-04-22T10:15:39.665Z,118880.00
2019-04-22T10:16:43.742Z,119072.00
2019-04-22T10:17:47.785Z,118496.00
2019-04-22T10:19:40.897Z,113376.00
2019-04-22T10:21:44.677Z,113856.00
2019-04-22T10:22:46.194Z,113792.00
2019-04-22T10:23:45.433Z,113312.00
2019-04-22T10:24:43.251Z,112800.00
2019-04-22T10:25:47.323Z,111872.00
2019-04-22T10:27:46.260Z,109760.00
2019-04-22T10:28:44.477Z,110144.00
2019-04-22T10:29:47.256Z,110848.00
2019-04-22T10:30:47.131Z,111072.00
2019-04-22T10:31:43.323Z,111264.00
2019-04-22T10:32:46.183Z,112224.00
2019-04-22T10:33:36.279Z,112704.00
2019-04-22T10:34:26.977Z,113472.00
2019-04-22T10:35:19.904Z,114368.00
2019-04-22T10:36:17.281Z,115680.00
2019-04-22T10:37:19.012Z,115392.00
2019-04-22T10:38:16.643Z,117248.00
2019-04-22T10:39:16.350Z,118240.00
2019-04-22T10:40:17.762Z,118208.00
2019-04-22T10:41:16.724Z,117024.00
2019-04-22T10:42:17.467Z,117536.00
2019-04-22T10:43:17.049Z,117216.00
2019-04-22T10:44:17.127Z,115360.00
2019-04-22T10:45:16.583Z,114624.00
2019-04-22T10:46:17.961Z,113760.00
2019-04-22T10:47:16.337Z,112960.00
2019-04-22T10:48:16.512Z,112288.00
2019-04-22T10:49:16.336Z,112288.00
2019-04-22T10:50:16.607Z,110176.00
2019-04-22T10:51:16.901Z,111296.00
2019-04-22T10:52:16.570Z,110272.00
2019-04-22T10:53:17.605Z,111904.00
2019-04-22T10:54:17.651Z,111616.00
2019-04-22T10:55:17.253Z,114720.00
2019-04-22T10:56:16.946Z,115488.00
2019-04-22T10:57:16.337Z,115968.00
2019-04-22T10:58:16.951Z,116512.00
2019-04-22T10:59:16.528Z,116416.00
2019-04-22T11:00:17.568Z,117824.00
2019-04-22T11:01:17.790Z,117696.00
2019-04-22T11:02:17.327Z,117824.00
2019-04-22T11:03:16.342Z,115968.00
2019-04-22T11:04:17.437Z,116288.00
2019-04-22T11:05:16.740Z,115104.00
2019-04-22T11:06:17.119Z,115040.00
2019-04-22T11:07:17.345Z,113856.00
2019-04-22T11:08:26.054Z,112576.00
2019-04-22T11:09:16.462Z,112288.00
2019-04-22T11:10:34.872Z,111168.00
2019-04-22T11:11:31.540Z,109952.00
2019-04-22T11:12:20.618Z,109312.00
2019-04-22T11:13:17.853Z,109696.00
2019-04-22T11:14:16.845Z,111104.00
2019-04-22T11:15:16.342Z,111072.00
2019-04-22T11:16:17.454Z,113248.00
2019-04-22T11:17:17.681Z,113472.00
2019-04-22T11:18:17.688Z,113408.00
2019-04-22T11:19:17.355Z,114176.00
2019-04-22T11:20:17.569Z,115744.00
2019-04-22T11:21:17.805Z,116096.00
2019-04-22T11:22:22.080Z,115520.00
2019-04-22T11:23:16.481Z,115584.00
2019-04-22T11:24:16.841Z,115104.00
2019-04-22T11:25:16.331Z,114656.00
2019-04-22T11:26:17.628Z,114400.00
2019-04-22T11:27:16.971Z,113600.00
2019-04-22T11:28:17.844Z,112736.00
2019-04-22T11:29:17.399Z,112320.00
2019-04-22T11:30:20.017Z,111808.00
2019-04-22T11:31:16.667Z,110816.00
2019-04-22T11:32:16.333Z,109760.00
2019-04-22T11:33:16.457Z,107904.00
2019-04-22T11:34:17.197Z,107584.00
2019-04-22T11:35:16.325Z,107648.00
2019-04-22T11:36:17.491Z,106304.00
2019-04-22T11:37:16.637Z,106272.00
2019-04-22T11:38:17.280Z,107552.00
2019-04-22T11:39:17.016Z,108480.00
2019-04-22T11:40:24.035Z,108800.00
2019-04-22T11:41:16.836Z,109984.00
2019-04-22T11:42:16.432Z,110688.00
2019-04-22T11:43:16.489Z,110464.00
2019-04-22T11:44:17.140Z,111040.00
2019-04-22T11:45:17.451Z,110240.00
2019-04-22T11:46:17.633Z,109760.00
2019-04-22T11:47:17.169Z,109344.00
2019-04-22T11:48:17.620Z,109344.00
2019-04-22T11:49:16.406Z,109344.00
2019-04-22T11:50:17.409Z,108704.00
2019-04-22T11:51:16.307Z,107488.00
2019-04-22T11:52:17.282Z,106496.00
2019-04-22T11:53:16.737Z,104160.00
2019-04-22T11:54:16.965Z,102944.00
2019-04-22T11:55:17.060Z,101856.00
2019-04-22T11:56:16.836Z,102016.00
2019-04-22T11:57:17.047Z,101632.00
2019-04-22T11:58:17.027Z,102848.00
2019-04-22T11:59:16.296Z,103200.00
2019-04-22T12:00:16.862Z,102912.00
2019-04-22T12:01:16.896Z,104960.00
2019-04-22T12:02:18.062Z,103968.00
2019-04-22T12:03:16.859Z,103456.00
2019-04-22T12:04:16.289Z,103680.00
2019-04-22T12:05:17.505Z,106208.00
2019-04-22T12:06:17.808Z,107584.00
2019-04-22T12:07:17.163Z,108224.00
2019-04-22T12:08:17.347Z,107936.00
2019-04-22T12:09:17.603Z,107712.00
2019-04-22T12:10:27.234Z,106656.00
2019-04-22T12:11:16.608Z,106656.00
2019-04-22T12:12:16.274Z,103776.00
2019-04-22T12:13:17.783Z,103584.00
2019-04-22T12:14:16.272Z,103136.00
2019-04-22T12:15:16.922Z,103072.00
2019-04-22T12:16:17.161Z,102048.00
2019-04-22T12:17:16.261Z,101536.00
2019-04-22T12:18:17.312Z,101536.00
2019-04-22T12:19:16.257Z,101664.00
2019-04-22T12:20:17.989Z,102464.00
2019-04-22T12:21:17.110Z,102912.00
2019-04-22T12:22:17.329Z,103680.00
2019-04-22T12:23:17.032Z,104576.00
2019-04-22T12:24:17.216Z,105280.00
2019-04-22T12:25:30.003Z,105760.00
2019-04-22T12:26:19.033Z,105952.00
2019-04-22T12:27:18.619Z,105696.00
2019-04-22T12:28:17.202Z,105216.00
2019-04-22T12:29:17.177Z,104288.00
2019-04-22T12:30:16.702Z,102912.00
2019-04-22T12:31:17.501Z,102496.00
2019-04-22T12:32:17.681Z,100992.00
2019-04-22T12:33:17.047Z,99488.00
2019-04-22T12:34:17.315Z,98880.00
2019-04-22T12:35:17.641Z,97568.00
2019-04-22T12:36:16.211Z,96224.00
2019-04-22T12:37:27.426Z,94464.00
2019-04-22T12:38:16.987Z,94240.00
2019-04-22T12:39:17.707Z,93504.00
2019-04-22T12:40:29.360Z,92640.00
2019-04-22T12:41:17.804Z,91552.00
2019-04-22T12:42:17.463Z,90656.00
2019-04-22T12:43:18.603Z,90624.00
2019-04-22T12:44:16.185Z,90400.00
2019-04-22T12:45:16.345Z,91360.00
2019-04-22T12:46:16.420Z,92704.00
2019-04-22T12:47:16.177Z,93184.00
2019-04-22T12:48:17.084Z,93120.00
2019-04-22T12:49:16.409Z,93792.00
2019-04-22T12:50:22.442Z,94496.00
2019-04-22T12:51:16.160Z,94400.00
2019-04-22T12:52:24.071Z,94848.00
2019-04-22T12:53:18.809Z,94528.00
2019-04-22T12:54:17.099Z,93888.00
2019-04-22T12:55:17.427Z,91808.00
2019-04-22T12:56:17.417Z,91360.00
2019-04-22T12:57:16.840Z,90656.00
2019-04-22T12:58:16.133Z,89536.00
2019-04-22T12:59:17.291Z,87424.00
2019-04-22T13:00:17.551Z,87008.00
2019-04-22T13:01:16.998Z,85984.00
2019-04-22T13:02:16.117Z,85216.00
2019-04-22T13:03:16.113Z,84992.00
2019-04-22T13:04:19.475Z,84288.00
2019-04-22T13:05:16.366Z,83776.00
2019-04-22T13:06:17.493Z,83296.00
2019-04-22T13:07:16.097Z,79488.00
2019-04-22T13:08:16.091Z,82912.00
2019-04-22T13:09:17.761Z,50304.00
2019-04-22T13:10:16.079Z,113728.00
2019-04-22T13:11:19.660Z,92928.00
2019-04-22T13:12:17.188Z,38816.00
2019-04-22T13:13:16.064Z,23808.00
2019-04-22T13:14:16.815Z,14176.00
2019-04-22T13:15:16.120Z,15744.00
2019-04-22T13:16:17.475Z,48320.00
2019-04-22T13:17:17.122Z,72192.00
2019-04-22T13:18:27.000Z,78688.00
2019-04-22T13:19:18.902Z,78080.00
2019-04-22T13:20:18.238Z,77600.00
2019-04-22T13:21:16.021Z,75840.00
2019-04-22T13:22:16.947Z,75648.00
2019-04-22T13:23:16.010Z,74432.00
2019-04-22T13:24:19.530Z,73024.00
2019-04-22T13:25:15.997Z,72992.00
2019-04-22T13:26:16.950Z,68288.00
2019-04-22T13:27:17.215Z,66496.00
2019-04-22T13:28:15.981Z,72416.00
2019-04-22T13:29:16.878Z,72544.00
2019-04-22T13:30:16.400Z,73664.00
2019-04-22T13:31:17.767Z,74048.00
2019-04-22T13:32:16.572Z,73632.00
2019-04-22T13:33:16.818Z,73184.00
2019-04-22T13:34:21.600Z,72544.00